SOHO CELIAS Proton Monitor
Solar Wind Parameters for Carrington Rotation 2119 (hour averages)


Listed Parameters:

Measurement time (Year, Month, Day of Month, Day of Year, Hour, Minute, Second)
Proton speed [km/sec]
Proton density [protons per cubic centimeter]
Most probable proton thermal speed [km/sec]
Arrival direction [degrees from north-south, with + meaning FROM the south).
(SPEED=-1 means NOT AVAILABLE)

SOHO spacecraft coordinates: based on SOHO PRE orbit files
GSE X, Y, Z [Earth Radii] 1 RE == 6378 km
Heliocentric Range [106 km],
Heliographic Latitude and Longitude [deg].

FORMAT=(1X,I2,1X,I3,1X,I2,1X,I2,1X,I2,F7.1,3F7.2,3X,3F7.1,F7.1,F7.2,F8.2)



                              CELIAS/MTOF/PM DATA                      SOHO ORBIT DATA              
 InSitu_Start__Time       [km/s]  [cm-3] [km/s]  [deg]      [Re]   [Re]   [Re]  [Mkm]  [deg]  [deg]
 YY MON DY DOY:HH:MM:SS   SPEED     Np     Vth    N/S      GSE_X  GSE_Y  GSE_Z  RANGE  HGLAT  HGLONG
 12 JAN  9   9:23:00:00     441    3.4      34   -1.8      256.9    7.1  -19.4  145.5   -2.9  6239.6
 12 JAN 10  10:00:00:00     435    2.6      37   -0.9      256.9    7.0  -19.4  145.5   -2.9  6242.1
 12 JAN 10  10:01:00:00     438    2.8      35    0.4      256.9    6.8  -19.4  145.5   -2.9  6244.5
 12 JAN 10  10:02:00:00     439    3.1      34    0.5      256.9    6.7  -19.4  145.5   -2.9  6247.0
 12 JAN 10  10:03:00:00     435    2.3      35   -1.1      256.9    6.5  -19.4  145.5   -2.9  6249.4
 12 JAN 10  10:04:00:00     440    1.9      34   -1.5      256.9    6.3  -19.4  145.5   -2.9  6251.9
 12 JAN 10  10:05:00:00     439    1.8      36   -1.6      257.0    6.2  -19.4  145.5   -2.9  6254.4
 12 JAN 10  10:06:00:00     443    2.4      31   -0.3      257.0    6.0  -19.5  145.5   -2.9  6256.8
 12 JAN 10  10:07:00:00     436    2.3      34    1.3      257.0    5.9  -19.5  145.5   -2.9  6259.3
 12 JAN 10  10:08:00:00     434    1.9      36    0.1      257.0    5.7  -19.5  145.5   -2.9  6261.7
 12 JAN 10  10:09:00:00     441    2.5      36    0.0      257.0    5.6  -19.5  145.5   -2.9  6264.2
 12 JAN 10  10:10:00:00     441    2.7      34    0.6      257.0    5.4  -19.5  145.5   -2.9  6266.6
 12 JAN 10  10:11:00:00     436    2.5      35   -0.7      257.0    5.2  -19.5  145.5   -2.9  6269.1
 12 JAN 10  10:12:00:00     437    2.5      35   -1.4      257.0    5.1  -19.5  145.5   -2.9  6271.5
 12 JAN 10  10:13:00:00     446    2.5      33   -0.5      257.0    4.9  -19.5  145.5   -2.9  6274.0
 12 JAN 10  10:14:00:00     451    3.4      27   -0.6      257.0    4.8  -19.5  145.5   -2.9  6276.4
 12 JAN 10  10:15:00:00     451    4.4      27   -1.5      257.0    4.6  -19.5  145.5   -2.9  6278.9
 12 JAN 10  10:16:00:00     451    4.7      31   -2.4      257.0    4.5  -19.5  145.5   -2.9  6281.3
 12 JAN 10  10:17:00:00     446    4.6      32   -3.5      257.0    4.3  -19.5  145.5   -2.9  6283.8
 12 JAN 10  10:18:00:00     434    4.5      34   -5.3      257.0    4.1  -19.5  145.5   -2.9  6286.3
 12 JAN 10  10:19:00:00     442    2.8      37   -3.4      257.0    4.0  -19.5  145.5   -2.9  6288.7
 12 JAN 10  10:20:00:00     452    2.9      37   -0.9      257.0    3.8  -19.5  145.5   -2.9  6291.1
 12 JAN 10  10:21:00:00     455    3.1      33   -0.3      257.0    3.7  -19.5  145.5   -2.9  6293.6
 12 JAN 10  10:22:00:00     451    3.1      28   -0.2      257.0    3.5  -19.5  145.5   -2.9  6296.1
 12 JAN 10  10:23:00:00     450    3.2      31    0.1      257.1    3.4  -19.5  145.5   -2.9  6298.5
 12 JAN 11  11:00:00:00     450    2.3      34   -0.5      257.1    3.2  -19.5  145.5   -2.9  6301.0
 12 JAN 11  11:01:00:00     456    2.1      36    0.7      257.1    3.0  -19.5  145.5   -2.9  6303.5
 12 JAN 11  11:02:00:00     458    3.5      32    1.9      257.1    2.9  -19.5  145.5   -2.9  6305.9
 12 JAN 11  11:03:00:00     464    3.7      35    2.5      257.1    2.7  -19.5  145.5   -2.9  6308.3
 12 JAN 11  11:04:00:00     467    4.4      37    1.9      257.1    2.6  -19.5  145.5   -2.9  6310.8
 12 JAN 11  11:05:00:00     471    4.2      38    2.2      257.1    2.4  -19.5  145.5   -2.9  6313.3
 12 JAN 11  11:06:00:00     473    4.0      35    2.7      257.1    2.2  -19.5  145.5   -2.9  6315.7
 12 JAN 11  11:07:00:00     490    3.0      40    2.8      257.1    2.1  -19.5  145.5   -2.9  6318.2
 12 JAN 11  11:08:00:00     494    3.6      40    4.1      257.1    1.9  -19.5  145.5   -2.9  6320.6
 12 JAN 11  11:09:00:00     487    3.4      38    3.1      257.1    1.8  -19.5  145.5   -2.9  6323.1
 12 JAN 11  11:10:00:00     506    2.7      44    1.2      257.1    1.6  -19.5  145.5   -2.9  6325.5
 12 JAN 11  11:11:00:00     501    2.7      43    1.8      257.1    1.5  -19.5  145.5   -2.9  6328.0
 12 JAN 11  11:12:00:00     492    3.1      41    1.9      257.1    1.3  -19.5  145.5   -2.9  6330.4
 12 JAN 11  11:13:00:00     484    3.2      39    1.7      257.1    1.1  -19.5  145.5   -2.9  6332.9
 12 JAN 11  11:14:00:00     490    2.8      41    1.7      257.1    1.0  -19.5  145.5   -2.9  6335.3
 12 JAN 11  11:15:00:00     493    2.4      42    1.2      257.1    0.8  -19.5  145.5   -2.9  6337.8
 12 JAN 11  11:16:00:00     482    2.6      39    0.7      257.1    0.7  -19.5  145.5   -2.9  6340.2
 12 JAN 11  11:17:00:00     477    2.7      37    0.3      257.1    0.5  -19.5  145.5   -2.9  6342.7
 12 JAN 11  11:18:00:00     474    2.9      36    0.4      257.1    0.4  -19.5  145.5   -2.9  6345.2
 12 JAN 11  11:19:00:00     468    2.9      34    0.3      257.2    0.2  -19.5  145.5   -2.9  6347.6
 12 JAN 11  11:20:00:00     463    3.1      31    0.3      257.2    0.0  -19.5  145.5   -2.9  6350.1
 12 JAN 11  11:21:00:00     464    3.0      31    0.3      257.2   -0.1  -19.5  145.5   -2.9  6352.5
 12 JAN 11  11:22:00:00     466    3.2      33    0.1      257.2   -0.3  -19.5  145.5   -2.9  6355.0
 12 JAN 11  11:23:00:00     453    3.5      26   -0.1      257.2   -0.4  -19.5  145.5   -2.9  6357.4
 12 JAN 12  12:00:00:00     448    3.4      24    0.1      257.2   -0.6  -19.5  145.5   -2.9  6359.9
 12 JAN 12  12:01:00:00     452    3.6      26   -0.3      257.2   -0.7  -19.5  145.5   -2.9  6362.4
 12 JAN 12  12:02:00:00     454    3.6      29    0.0      257.2   -0.9  -19.5  145.5   -2.9  6364.8
 12 JAN 12  12:03:00:00     453    3.0      33    0.0      257.2   -1.1  -19.5  145.5   -2.9  6367.2
 12 JAN 12  12:04:00:00     447    2.6      36    0.7      257.2   -1.2  -19.5  145.5   -2.9  6369.7
 12 JAN 12  12:05:00:00     442    2.7      33    1.3      257.2   -1.4  -19.5  145.5   -2.9  6372.2
 12 JAN 12  12:06:00:00     435    2.4      35    1.4      257.2   -1.5  -19.5  145.5   -2.9  6374.6
 12 JAN 12  12:07:00:00     438    2.2      37    1.0      257.2   -1.7  -19.5  145.5   -2.9  6377.1
 12 JAN 12  12:08:00:00     443    2.0      39    0.6      257.2   -1.8  -19.5  145.5   -2.9  6379.5
 12 JAN 12  12:09:00:00     427    2.0      39    0.0      257.2   -2.0  -19.5  145.5   -2.9  6382.0
 12 JAN 12  12:10:00:00     420    2.8      38   -0.1      257.2   -2.2  -19.5  145.5   -2.9  6384.4
 12 JAN 12  12:11:00:00     402    3.9      34    0.1      257.2   -2.3  -19.5  145.5   -2.9  6386.9
 12 JAN 12  12:12:00:00     388    4.9      30    0.1      257.2   -2.5  -19.5  145.5   -2.9  6389.3
 12 JAN 12  12:13:00:00     389    6.7      30    0.4      257.2   -2.6  -19.5  145.5   -2.9  6391.8
 12 JAN 12  12:14:00:00     392    8.0      30    0.9      257.2   -2.8  -19.5  145.5   -2.9  6394.3
 12 JAN 12  12:15:00:00     390    9.3      31    0.8      257.2   -2.9  -19.5  145.5   -2.9  6396.7
 12 JAN 12  12:16:00:00     389   10.6      31    1.2      257.2   -3.1  -19.5  145.5   -2.9  6399.1
 12 JAN 12  12:17:00:00     402   11.5      33    0.7      257.2   -3.2  -19.5  145.5   -2.9  6401.6
 12 JAN 12  12:18:00:00     384   10.6      29   -0.3      257.2   -3.4  -19.5  145.5   -2.9  6404.1
 12 JAN 12  12:19:00:00     428    7.3      38    0.1      257.2   -3.6  -19.5  145.5   -2.9  6406.5
 12 JAN 12  12:20:00:00     473    5.3      40   -2.1      257.2   -3.7  -19.5  145.5   -2.9  6409.0
 12 JAN 12  12:21:00:00     487    5.0      41   -2.7      257.2   -3.9  -19.5  145.5   -2.9  6411.4
 12 JAN 12  12:22:00:00     488    6.5      43   -2.5      257.2   -4.0  -19.5  145.5   -2.9  6413.9
 12 JAN 12  12:23:00:00     522    5.4      47   -5.4      257.3   -4.2  -19.5  145.5   -2.9  6416.3
 12 JAN 13  13:00:00:00     522    3.6      43   -6.5      257.3   -4.3  -19.5  145.5   -2.9  6418.8
 12 JAN 13  13:01:00:00     531    3.6      44   -6.0      257.3   -4.5  -19.5  145.5   -2.9  6421.3
 12 JAN 13  13:02:00:00     551    2.9      45   -6.2      257.3   -4.7  -19.5  145.5   -2.9  6423.7
 12 JAN 13  13:03:00:00     548    2.6      42   -7.6      257.3   -4.8  -19.5  145.5   -2.9  6426.1
 12 JAN 13  13:04:00:00     549    2.7      41   -5.0      257.3   -5.0  -19.5  145.5   -2.9  6428.6
 12 JAN 13  13:05:00:00     556    2.8      47   -2.6      257.3   -5.1  -19.5  145.5   -2.9  6431.1
 12 JAN 13  13:06:00:00     550    2.2      45   -2.3      257.3   -5.3  -19.5  145.5   -2.9  6433.5
 12 JAN 13  13:07:00:00     536    2.0      45   -2.5      257.3   -5.4  -19.5  145.5   -2.9  6436.0
 12 JAN 13  13:08:00:00     517    1.9      45   -1.1      257.3   -5.6  -19.5  145.5   -2.9  6438.4
 12 JAN 13  13:09:00:00     524    1.4      46   -1.9      257.3   -5.7  -19.5  145.5   -2.9  6440.9
 12 JAN 13  13:10:00:00     515    1.2      45    0.1      257.3   -5.9  -19.5  145.5   -2.9  6443.3
 12 JAN 13  13:11:00:00     492    1.4      40    0.7      257.3   -6.1  -19.5  145.5   -2.9  6445.8
 12 JAN 13  13:12:00:00     472    2.0      35    0.8      257.3   -6.2  -19.5  145.5   -2.9  6448.2
 12 JAN 13  13:13:00:00     471    2.1      35    1.1      257.3   -6.4  -19.5  145.5   -2.9  6450.7
 12 JAN 13  13:14:00:00     460    2.6      30    1.1      257.3   -6.5  -19.5  145.5   -2.9  6453.1
 12 JAN 13  13:15:00:00     451    3.5      25    0.2      257.3   -6.7  -19.5  145.5   -2.9  6455.6
 12 JAN 13  13:16:00:00     448    3.3      24    0.5      257.3   -6.8  -19.5  145.5   -2.9  6458.0
 12 JAN 13  13:17:00:00     448    3.5      24    0.3      257.3   -7.0  -19.5  145.5   -2.9  6460.5
 12 JAN 13  13:18:00:00     449    3.3      24    0.6      257.3   -7.1  -19.5  145.5   -2.9  6463.0
 12 JAN 13  13:19:00:00     450    3.1      26    1.1      257.3   -7.3  -19.5  145.5   -2.9  6465.4
 12 JAN 13  13:20:00:00     451    3.0      27    1.3      257.3   -7.5  -19.5  145.5   -2.9  6467.8
 12 JAN 13  13:21:00:00     452    2.9      27    1.5      257.3   -7.6  -19.5  145.5   -2.9  6470.3
 12 JAN 13  13:22:00:00     453    2.8      28    0.9      257.3   -7.8  -19.5  145.5   -2.9  6472.8
 12 JAN 13  13:23:00:00     453    2.9      27    1.0      257.3   -7.9  -19.5  145.5   -2.9  6475.2
 12 JAN 14  14:00:00:00     454    2.2      29    0.6      257.3   -8.1  -19.5  145.5   -2.9  6477.7
 12 JAN 14  14:01:00:00     452    2.5      27    1.1      257.3   -8.2  -19.5  145.5   -2.9  6480.2
 12 JAN 14  14:02:00:00     454    2.4      28    1.3      257.3   -8.4  -19.5  145.5   -2.9  6482.6
 12 JAN 14  14:03:00:00     449    2.4      25    0.8      257.3   -8.5  -19.5  145.5   -2.9  6485.0
 12 JAN 14  14:04:00:00     450    2.2      25    0.3      257.3   -8.7  -19.5  145.5   -2.9  6487.5
 12 JAN 14  14:05:00:00     447    2.2      27    0.3      257.3   -8.8  -19.5  145.5   -2.9  6490.0
 12 JAN 14  14:06:00:00     443    1.7      33    0.4      257.3   -9.0  -19.5  145.5   -2.9  6492.4
 12 JAN 14  14:07:00:00     438    1.3      36   -0.1      257.3   -9.2  -19.5  145.5   -2.9  6494.9
 12 JAN 14  14:08:00:00      -1   -1.0      -1   99.0      257.3   -9.3  -19.5  145.5   -2.9  6497.3
 12 JAN 14  14:09:00:00     438    1.0      37   -0.2      257.3   -9.5  -19.5  145.5   -2.9  6499.8
 12 JAN 14  14:10:00:00     433    0.9      38   -0.5      257.3   -9.6  -19.5  145.5   -2.9  6502.2
 12 JAN 14  14:11:00:00     429    0.8      41    1.2      257.3   -9.8  -19.5  145.5   -2.9  6504.7
 12 JAN 14  14:12:00:00     419    1.2      37    0.9      257.3   -9.9  -19.5  145.5   -2.9  6507.1
 12 JAN 14  14:13:00:00     419    1.3      37    0.9      257.3  -10.1  -19.5  145.5   -2.9  6509.6
 12 JAN 14  14:14:00:00     389    1.5      30    1.0      257.3  -10.2  -19.5  145.5   -2.9  6512.0
 12 JAN 14  14:15:00:00     369    2.1      24    1.3      257.3  -10.4  -19.5  145.5   -2.9  6514.5
 12 JAN 14  14:16:00:00     365    2.3      23    1.4      257.3  -10.5  -19.5  145.5   -2.9  6516.9
 12 JAN 14  14:17:00:00     359    2.7      21    1.3      257.3  -10.7  -19.5  145.5   -2.9  6519.4
 12 JAN 14  14:18:00:00     356    2.9      21    1.3      257.3  -10.8  -19.5  145.5   -2.9  6521.9
 12 JAN 14  14:19:00:00     350    3.2      20    1.2      257.3  -11.0  -19.5  145.5   -2.9  6524.3
 12 JAN 14  14:20:00:00     352    3.7      19    0.9      257.3  -11.2  -19.5  145.5   -2.9  6526.7
 12 JAN 14  14:21:00:00     347    4.6      13    0.6      257.3  -11.3  -19.5  145.5   -2.9  6529.2
 12 JAN 14  14:22:00:00     347    4.3      14    0.8      257.3  -11.5  -19.5  145.5   -2.9  6531.7
 12 JAN 14  14:23:00:00     349    4.1      18    1.1      257.3  -11.6  -19.5  145.5   -2.9  6534.1
 12 JAN 15  15:00:00:00     353    3.3      21    1.4      257.3  -11.8  -19.5  145.5   -2.9  6536.5
 12 JAN 15  15:01:00:00     350    2.9      22    2.6      257.3  -11.9  -19.5  145.5   -2.9  6539.0
 12 JAN 15  15:02:00:00     346    3.6      22    2.7      257.3  -12.1  -19.5  145.5   -2.9  6541.5
 12 JAN 15  15:03:00:00     349    6.0      20    3.4      257.3  -12.2  -19.4  145.5   -2.9  6543.9
 12 JAN 15  15:04:00:00     349    6.5      18    3.4      257.3  -12.4  -19.4  145.5   -2.9  6546.4
 12 JAN 15  15:05:00:00     336    3.8      21    3.1      257.3  -12.5  -19.4  145.5   -2.9  6548.9
 12 JAN 15  15:06:00:00     334    1.9      22    2.2      257.3  -12.7  -19.4  145.5   -2.9  6551.3
 12 JAN 15  15:07:00:00     347    3.5      21    3.7      257.3  -12.8  -19.4  145.5   -2.9  6553.7
 12 JAN 15  15:08:00:00     349    3.3      22    3.2      257.3  -13.0  -19.4  145.5   -2.9  6556.2
 12 JAN 15  15:09:00:00     351    3.5      22    3.1      257.3  -13.1  -19.4  145.5   -2.9  6558.7
 12 JAN 15  15:10:00:00     349    3.5      22    3.5      257.3  -13.3  -19.4  145.5   -2.9  6561.1
 12 JAN 15  15:11:00:00     348    3.7      22    3.7      257.3  -13.4  -19.4  145.5   -2.9  6563.6
 12 JAN 15  15:12:00:00     341    4.1      22    3.8      257.3  -13.6  -19.4  145.5   -2.9  6566.0
 12 JAN 15  15:13:00:00     339    4.3      22    4.3      257.3  -13.7  -19.4  145.5   -2.9  6568.5
 12 JAN 15  15:14:00:00     341    4.9      21    3.9      257.3  -13.9  -19.4  145.5   -2.9  6570.9
 12 JAN 15  15:15:00:00     350    8.4      21    3.3      257.3  -14.0  -19.4  145.5   -2.9  6573.4
 12 JAN 15  15:16:00:00     353   12.6      21    4.0      257.3  -14.2  -19.4  145.5   -2.9  6575.8
 12 JAN 15  15:17:00:00     349   15.0      23    5.8      257.3  -14.3  -19.4  145.5   -2.9  6578.2
 12 JAN 15  15:18:00:00     347   15.2      22    6.0      257.3  -14.5  -19.4  145.5   -2.9  6580.7
 12 JAN 15  15:19:00:00     349   22.1      23    6.8      257.3  -14.7  -19.4  145.5   -2.9  6583.2
 12 JAN 15  15:20:00:00     371   10.1      27    3.5      257.3  -14.8  -19.4  145.5   -2.9  6585.6
 12 JAN 15  15:21:00:00     375    8.5      26    3.4      257.3  -15.0  -19.4  145.5   -2.9  6588.1
 12 JAN 15  15:22:00:00     404    7.1      33    2.6      257.3  -15.1  -19.4  145.5   -2.9  6590.5
 12 JAN 15  15:23:00:00     394    8.0      30    4.9      257.3  -15.3  -19.4  145.5   -2.9  6593.0
 12 JAN 16  16:00:00:00     443    2.5      36    7.3      257.3  -15.4  -19.4  145.5   -2.9  6595.4
 12 JAN 16  16:01:00:00     441    2.2      37    6.8      257.3  -15.6  -19.4  145.5   -2.9  6597.9
 12 JAN 16  16:02:00:00     428    1.7      38    5.7      257.3  -15.7  -19.4  145.5   -2.9  6600.4
 12 JAN 16  16:03:00:00     413    2.4      33    4.2      257.3  -15.9  -19.4  145.5   -2.9  6602.8
 12 JAN 16  16:04:00:00     388    5.6      30    1.4      257.3  -16.0  -19.4  145.5   -2.9  6605.2
 12 JAN 16  16:05:00:00     359    7.9      24    1.3      257.3  -16.2  -19.4  145.5   -2.9  6607.7
 12 JAN 16  16:06:00:00     361    9.8      26    1.3      257.3  -16.3  -19.4  145.5   -2.9  6610.2
 12 JAN 16  16:07:00:00     382    8.2      29   -1.3      257.2  -16.5  -19.4  145.5   -2.9  6612.6
 12 JAN 16  16:08:00:00     390    7.9      29   -1.2      257.2  -16.6  -19.4  145.5   -2.9  6615.1
 12 JAN 16  16:09:00:00     416    8.3      35    0.4      257.2  -16.8  -19.4  145.5   -2.9  6617.5
 12 JAN 16  16:10:00:00     431    4.1      37   -0.9      257.2  -16.9  -19.4  145.5   -2.9  6620.0
 12 JAN 16  16:11:00:00     445    3.4      36   -1.0      257.2  -17.1  -19.4  145.5   -2.9  6622.4
 12 JAN 16  16:12:00:00     456    4.3      34   -0.2      257.2  -17.2  -19.3  145.5   -2.9  6624.9
 12 JAN 16  16:13:00:00     492    4.2      41    0.6      257.2  -17.4  -19.3  145.5   -2.9  6627.4
 12 JAN 16  16:14:00:00     498    4.1      41   -0.4      257.2  -17.5  -19.3  145.5   -2.9  6629.8
 12 JAN 16  16:15:00:00      -1   -1.0      -1   99.0      257.2  -17.7  -19.3  145.5   -2.9  6632.2
 12 JAN 16  16:16:00:00      -1   -1.0      -1   99.0      257.2  -17.8  -19.3  145.5   -2.9  6634.7
 12 JAN 16  16:17:00:00      -1   -1.0      -1   99.0      257.2  -18.0  -19.3  145.5   -2.9  6637.1
 12 JAN 16  16:18:00:00      -1   -1.0      -1   99.0      257.2  -18.1  -19.3  145.5   -2.9  6639.6
 12 JAN 16  16:19:00:00      -1   -1.0      -1   99.0      257.2  -18.3  -19.3  145.5   -2.9  6642.1
 12 JAN 16  16:20:00:00      -1   -1.0      -1   99.0      257.2  -18.4  -19.3  145.5   -2.9  6644.5
 12 JAN 16  16:21:00:00     467    4.6      33   -0.9      257.2  -18.6  -19.3  145.5   -2.9  6646.9
 12 JAN 16  16:22:00:00     466    4.2      33    0.8      257.2  -18.7  -19.3  145.5   -2.9  6649.4
 12 JAN 16  16:23:00:00     508    2.3      44    1.7      257.2  -18.8  -19.3  145.5   -2.9  6651.9
 12 JAN 17  17:00:00:00     479    2.9      39   -1.0      257.2  -19.0  -19.3  145.5   -2.9  6654.3
 12 JAN 17  17:01:00:00     467    3.8      33    0.3      257.2  -19.1  -19.3  145.5   -2.9  6656.7
 12 JAN 17  17:02:00:00     471    3.4      35   -0.7      257.2  -19.3  -19.3  145.5   -2.9  6659.2
 12 JAN 17  17:03:00:00     468    3.4      34   -0.6      257.2  -19.4  -19.3  145.5   -2.9  6661.7
 12 JAN 17  17:04:00:00     475    2.5      36   -0.7      257.2  -19.6  -19.3  145.5   -2.9  6664.1
 12 JAN 17  17:05:00:00     464    2.7      32   -1.4      257.2  -19.7  -19.3  145.5   -2.9  6666.6
 12 JAN 17  17:06:00:00     457    3.2      28   -3.1      257.1  -19.9  -19.3  145.5   -2.9  6669.0
 12 JAN 17  17:07:00:00     471    1.8      34   -1.1      257.1  -20.0  -19.3  145.5   -2.9  6671.5
 12 JAN 17  17:08:00:00     456    2.6      29   -0.5      257.1  -20.2  -19.3  145.5   -2.9  6673.9
 12 JAN 17  17:09:00:00     456    2.9      30   -0.8      257.1  -20.3  -19.3  145.5   -2.9  6676.4
 12 JAN 17  17:10:00:00     451    3.4      29   -3.1      257.1  -20.5  -19.3  145.5   -2.9  6678.9
 12 JAN 17  17:11:00:00     450    3.1      32   -2.3      257.1  -20.6  -19.3  145.5   -2.9  6681.3
 12 JAN 17  17:12:00:00     443    3.6      31   -3.8      257.1  -20.8  -19.3  145.5   -2.9  6683.7
 12 JAN 17  17:13:00:00     417    2.7      35   -1.9      257.1  -20.9  -19.2  145.5   -2.9  6686.2
 12 JAN 17  17:14:00:00     421    3.4      33   -4.0      257.1  -21.1  -19.2  145.5   -2.9  6688.7
 12 JAN 17  17:15:00:00     429    4.5      31   -6.8      257.1  -21.2  -19.2  145.5   -2.9  6691.1
 12 JAN 17  17:16:00:00     428    2.2      37   -2.2      257.1  -21.4  -19.2  145.5   -2.9  6693.5
 12 JAN 17  17:17:00:00     435    1.6      39   -1.5      257.1  -21.5  -19.2  145.5   -2.9  6696.0
 12 JAN 17  17:18:00:00     396    3.5      32    2.2      257.1  -21.6  -19.2  145.5   -2.9  6698.5
 12 JAN 17  17:19:00:00     384    4.0      29    1.9      257.1  -21.8  -19.2  145.5   -2.9  6700.9
 12 JAN 17  17:20:00:00     404    4.7      35    3.1      257.1  -21.9  -19.2  145.5   -2.9  6703.4
 12 JAN 17  17:21:00:00     418    4.3      36    4.3      257.0  -22.1  -19.2  145.5   -2.9  6705.8
 12 JAN 17  17:22:00:00     401    3.5      31    1.9      257.0  -22.2  -19.2  145.5   -2.9  6708.3
 12 JAN 17  17:23:00:00     384    4.7      27    2.3      257.0  -22.4  -19.2  145.5   -2.9  6710.7
 12 JAN 18  18:00:00:00     400    4.9      34    3.6      257.0  -22.5  -19.2  145.5   -2.9  6713.2
 12 JAN 18  18:01:00:00     396    6.1      30    3.8      257.0  -22.7  -19.2  145.5   -2.9  6715.6
 12 JAN 18  18:02:00:00     410    3.6      34    2.8      257.0  -22.8  -19.2  145.5   -2.9  6718.1
 12 JAN 18  18:03:00:00     390    6.4      28    4.5      257.0  -23.0  -19.2  145.5   -2.9  6720.5
 12 JAN 18  18:04:00:00     389    5.8      30    3.9      257.0  -23.1  -19.2  145.5   -2.9  6723.0
 12 JAN 18  18:05:00:00     385    5.2      30    2.8      257.0  -23.3  -19.2  145.5   -2.9  6725.4
 12 JAN 18  18:06:00:00     375    4.5      26    1.1      257.0  -23.4  -19.2  145.5   -2.8  6727.9
 12 JAN 18  18:07:00:00     379    3.9      28    1.1      257.0  -23.5  -19.2  145.5   -2.8  6730.3
 12 JAN 18  18:08:00:00     384    4.3      29    2.3      257.0  -23.7  -19.2  145.5   -2.8  6732.8
 12 JAN 18  18:09:00:00     383    3.9      29    0.1      256.9  -23.8  -19.1  145.5   -2.8  6735.2
 12 JAN 18  18:10:00:00     382    4.8      29    1.9      256.9  -24.0  -19.1  145.5   -2.8  6737.7
 12 JAN 18  18:11:00:00     372    4.9      27    1.4      256.9  -24.1  -19.1  145.5   -2.8  6740.2
 12 JAN 18  18:12:00:00     368    5.0      25    0.6      256.9  -24.3  -19.1  145.5   -2.8  6742.6
 12 JAN 18  18:13:00:00     363    4.9      24    0.3      256.9  -24.4  -19.1  145.5   -2.8  6745.0
 12 JAN 18  18:14:00:00     362    4.6      24    0.7      256.9  -24.6  -19.1  145.5   -2.8  6747.5
 12 JAN 18  18:15:00:00     371    5.8      25    2.8      256.9  -24.7  -19.1  145.5   -2.8  6750.0
 12 JAN 18  18:16:00:00     370    3.8      28    2.5      256.9  -24.8  -19.1  145.5   -2.8  6752.4
 12 JAN 18  18:17:00:00     363    4.2      25    1.0      256.9  -25.0  -19.1  145.5   -2.8  6754.8
 12 JAN 18  18:18:00:00     361    3.7      27    0.2      256.9  -25.1  -19.1  145.5   -2.8  6757.3
 12 JAN 18  18:19:00:00     357    4.1      23    0.3      256.9  -25.3  -19.1  145.5   -2.8  6759.8
 12 JAN 18  18:20:00:00     362    2.7      27    0.0      256.8  -25.4  -19.1  145.5   -2.8  6762.2
 12 JAN 18  18:21:00:00     365    4.4      25    1.1      256.8  -25.6  -19.1  145.5   -2.8  6764.6
 12 JAN 18  18:22:00:00     364    4.1      25    0.9      256.8  -25.7  -19.1  145.5   -2.8  6767.1
 12 JAN 18  18:23:00:00     374    2.7      35    0.0      256.8  -25.9  -19.1  145.5   -2.8  6769.6
 12 JAN 19  19:00:00:00     376    2.5      38   -0.2      256.8  -26.0  -19.1  145.5   -2.8  6772.0
 12 JAN 19  19:01:00:00     372    2.7      36    0.9      256.8  -26.1  -19.1  145.5   -2.8  6774.5
 12 JAN 19  19:02:00:00     364    2.9      34    1.3      256.8  -26.3  -19.1  145.6   -2.8  6776.9
 12 JAN 19  19:03:00:00     358    2.6      33    1.9      256.8  -26.4  -19.0  145.6   -2.8  6779.4
 12 JAN 19  19:04:00:00     358    2.5      30    0.8      256.8  -26.6  -19.0  145.6   -2.8  6781.8
 12 JAN 19  19:05:00:00     359    2.2      33   -1.0      256.7  -26.7  -19.0  145.6   -2.8  6784.3
 12 JAN 19  19:06:00:00     356    2.6      34    0.3      256.7  -26.9  -19.0  145.6   -2.8  6786.7
 12 JAN 19  19:07:00:00     354    3.3      31   -0.5      256.7  -27.0  -19.0  145.6   -2.8  6789.2
 12 JAN 19  19:08:00:00     356    3.2      29    0.8      256.7  -27.1  -19.0  145.6   -2.8  6791.6
 12 JAN 19  19:09:00:00     359    3.5      32    2.5      256.7  -27.3  -19.0  145.6   -2.8  6794.1
 12 JAN 19  19:10:00:00     365    2.6      33    1.2      256.7  -27.4  -19.0  145.6   -2.8  6796.5
 12 JAN 19  19:11:00:00     368    2.5      33    1.4      256.7  -27.6  -19.0  145.6   -2.8  6799.0
 12 JAN 19  19:12:00:00     370    2.3      34    1.1      256.7  -27.7  -19.0  145.6   -2.8  6801.4
 12 JAN 19  19:13:00:00     368    2.0      35    0.6      256.6  -27.9  -19.0  145.6   -2.8  6803.9
 12 JAN 19  19:14:00:00     361    2.2      34    1.5      256.6  -28.0  -19.0  145.6   -2.8  6806.3
 12 JAN 19  19:15:00:00     351    2.5      32    1.6      256.6  -28.1  -19.0  145.6   -2.8  6808.8
 12 JAN 19  19:16:00:00     339    3.0      28    1.6      256.6  -28.3  -19.0  145.6   -2.8  6811.2
 12 JAN 19  19:17:00:00     339    2.9      28    0.6      256.6  -28.4  -19.0  145.6   -2.8  6813.7
 12 JAN 19  19:18:00:00     335    3.2      27    1.5      256.6  -28.6  -19.0  145.6   -2.8  6816.1
 12 JAN 19  19:19:00:00     346    2.6      29    0.1      256.6  -28.7  -18.9  145.6   -2.8  6818.6
 12 JAN 19  19:20:00:00     344    3.1      28    0.6      256.6  -28.8  -18.9  145.6   -2.8  6821.0
 12 JAN 19  19:21:00:00     351    3.1      29   -0.3      256.5  -29.0  -18.9  145.6   -2.8  6823.5
 12 JAN 19  19:22:00:00     351    3.8      29    0.8      256.5  -29.1  -18.9  145.6   -2.8  6825.9
 12 JAN 19  19:23:00:00     352    4.0      26    0.9      256.5  -29.3  -18.9  145.6   -2.8  6828.4
 12 JAN 20  20:00:00:00     356    4.8      26    1.4      256.5  -29.4  -18.9  145.6   -2.8  6830.9
 12 JAN 20  20:01:00:00     357    7.9      26    2.0      256.5  -29.5  -18.9  145.6   -2.8  6833.3
 12 JAN 20  20:02:00:00     361    8.7      26    1.7      256.5  -29.7  -18.9  145.6   -2.8  6835.7
 12 JAN 20  20:03:00:00     355    7.3      23   -0.5      256.5  -29.8  -18.9  145.6   -2.8  6838.2
 12 JAN 20  20:04:00:00     349    6.9      22   -2.4      256.4  -30.0  -18.9  145.6   -2.8  6840.7
 12 JAN 20  20:05:00:00     348    6.8      22   -2.8      256.4  -30.1  -18.9  145.6   -2.8  6843.1
 12 JAN 20  20:06:00:00     347    6.4      24   -4.0      256.4  -30.3  -18.9  145.6   -2.8  6845.5
 12 JAN 20  20:07:00:00     349    6.0      23   -2.6      256.4  -30.4  -18.9  145.6   -2.8  6848.0
 12 JAN 20  20:08:00:00     353    5.8      23   -2.7      256.4  -30.5  -18.9  145.6   -2.8  6850.5
 12 JAN 20  20:09:00:00     348    5.8      24   -3.8      256.4  -30.7  -18.9  145.6   -2.8  6852.9
 12 JAN 20  20:10:00:00     350    4.8      25   -3.5      256.4  -30.8  -18.8  145.6   -2.8  6855.3
 12 JAN 20  20:11:00:00     332    5.5      24   -7.1      256.3  -30.9  -18.8  145.6   -2.8  6857.8
 12 JAN 20  20:12:00:00     326    5.8      23   -4.4      256.3  -31.1  -18.8  145.6   -2.8  6860.3
 12 JAN 20  20:13:00:00     324    5.2      23   -1.9      256.3  -31.2  -18.8  145.6   -2.8  6862.7
 12 JAN 20  20:14:00:00     324    5.5      23   -4.4      256.3  -31.4  -18.8  145.6   -2.8  6865.1
 12 JAN 20  20:15:00:00     324    6.5      22   -4.3      256.3  -31.5  -18.8  145.6   -2.8  6867.6
 12 JAN 20  20:16:00:00     318    6.8      21   -2.3      256.3  -31.6  -18.8  145.6   -2.8  6870.1
 12 JAN 20  20:17:00:00     313    6.7      21   -2.1      256.2  -31.8  -18.8  145.6   -2.8  6872.5
 12 JAN 20  20:18:00:00     308    6.4      20   -1.7      256.2  -31.9  -18.8  145.6   -2.8  6875.0
 12 JAN 20  20:19:00:00     305    5.7      19   -1.5      256.2  -32.1  -18.8  145.6   -2.8  6877.4
 12 JAN 20  20:20:00:00     296    5.2      19   -0.7      256.2  -32.2  -18.8  145.6   -2.8  6879.9
 12 JAN 20  20:21:00:00     292    5.2      19   -0.5      256.2  -32.3  -18.8  145.6   -2.8  6882.3
 12 JAN 20  20:22:00:00     295    5.7      19   -1.4      256.2  -32.5  -18.8  145.6   -2.8  6884.8
 12 JAN 20  20:23:00:00     292    5.5      18   -0.6      256.1  -32.6  -18.8  145.6   -2.8  6887.2
 12 JAN 21  21:00:00:00     299    3.6      19    1.2      256.1  -32.8  -18.7  145.6   -2.8  6889.7
 12 JAN 21  21:01:00:00     282    6.0      17    0.7      256.1  -32.9  -18.7  145.6   -2.8  6892.1
 12 JAN 21  21:02:00:00     284    5.3      17    0.9      256.1  -33.0  -18.7  145.6   -2.8  6894.6
 12 JAN 21  21:03:00:00     289    4.5      18    0.3      256.1  -33.2  -18.7  145.6   -2.8  6897.0
 12 JAN 21  21:04:00:00     306    5.3      20   -0.9      256.1  -33.3  -18.7  145.6   -2.8  6899.4
 12 JAN 21  21:05:00:00     304    5.9      20   -1.3      256.0  -33.4  -18.7  145.6   -2.8  6901.9
 12 JAN 21  21:06:00:00     306    7.2      20   -1.9      256.0  -33.6  -18.7  145.6   -2.8  6904.4
 12 JAN 21  21:07:00:00     304    6.7      19   -1.2      256.0  -33.7  -18.7  145.6   -2.8  6906.8
 12 JAN 21  21:08:00:00     305    6.5      20   -1.2      256.0  -33.9  -18.7  145.6   -2.8  6909.2
 12 JAN 21  21:09:00:00     304    6.8      19   -1.3      256.0  -34.0  -18.7  145.6   -2.8  6911.7
 12 JAN 21  21:10:00:00     300    6.7      19   -0.4      255.9  -34.1  -18.7  145.6   -2.8  6914.2
 12 JAN 21  21:11:00:00     293    7.2      19    1.1      255.9  -34.3  -18.7  145.6   -2.8  6916.6
 12 JAN 21  21:12:00:00     299    8.6      19   -2.0      255.9  -34.4  -18.7  145.6   -2.8  6919.0
 12 JAN 21  21:13:00:00     296    7.4      18    0.0      255.9  -34.5  -18.7  145.6   -2.8  6921.5
 12 JAN 21  21:14:00:00     305    8.8      19    0.3      255.9  -34.7  -18.6  145.6   -2.8  6924.0
 12 JAN 21  21:15:00:00     312   10.6      21    0.2      255.8  -34.8  -18.6  145.6   -2.8  6926.4
 12 JAN 21  21:16:00:00     308   10.1      20   -1.2      255.8  -35.0  -18.6  145.6   -2.8  6928.8
 12 JAN 21  21:17:00:00     307    8.9      20   -0.4      255.8  -35.1  -18.6  145.6   -2.8  6931.3
 12 JAN 21  21:18:00:00     307    9.8      20    1.3      255.8  -35.2  -18.6  145.6   -2.8  6933.8
 12 JAN 21  21:19:00:00     309   10.5      20    1.1      255.8  -35.4  -18.6  145.6   -2.8  6936.2
 12 JAN 21  21:20:00:00     311    6.9      20    0.3      255.7  -35.5  -18.6  145.6   -2.8  6938.6
 12 JAN 21  21:21:00:00     310    6.2      20    0.5      255.7  -35.6  -18.6  145.6   -2.8  6941.1
 12 JAN 21  21:22:00:00     301    6.9      19   -1.3      255.7  -35.8  -18.6  145.6   -2.8  6943.6
 12 JAN 21  21:23:00:00     299    6.8      19   -1.8      255.7  -35.9  -18.6  145.6   -2.8  6946.0
 12 JAN 22  22:00:00:00     302    6.6      19   -1.8      255.7  -36.0  -18.6  145.6   -2.8  6948.4
 12 JAN 22  22:01:00:00     297    6.9      19   -1.9      255.6  -36.2  -18.6  145.6   -2.8  6950.9
 12 JAN 22  22:02:00:00     299    6.4      19   -1.4      255.6  -36.3  -18.5  145.6   -2.8  6953.4
 12 JAN 22  22:03:00:00     311    6.4      21   -1.4      255.6  -36.5  -18.5  145.6   -2.8  6955.8
 12 JAN 22  22:04:00:00     308    9.0      20   -0.2      255.6  -36.6  -18.5  145.6   -2.8  6958.2
 12 JAN 22  22:05:00:00     366   19.2      28   -3.0      255.6  -36.7  -18.5  145.6   -2.8  6960.7
 12 JAN 22  22:06:00:00     402   22.3      34   -1.1      255.5  -36.9  -18.5  145.6   -2.8  6963.2
 12 JAN 22  22:07:00:00     427   34.4      39   -1.3      255.5  -37.0  -18.5  145.6   -2.8  6965.6
 12 JAN 22  22:08:00:00     437   31.9      49   -2.8      255.5  -37.1  -18.5  145.6   -2.8  6968.0
 12 JAN 22  22:09:00:00     432   38.2      41   -3.4      255.5  -37.3  -18.5  145.6   -2.8  6970.5
 12 JAN 22  22:10:00:00     400   32.6      37    2.5      255.4  -37.4  -18.5  145.6   -2.8  6973.0
 12 JAN 22  22:11:00:00     394   35.0      37    3.1      255.4  -37.5  -18.5  145.6   -2.8  6975.4
 12 JAN 22  22:12:00:00     404   10.7      36   -2.6      255.4  -37.7  -18.5  145.6   -2.8  6977.8
 12 JAN 22  22:13:00:00     391   22.9      38   -5.1      255.4  -37.8  -18.5  145.6   -2.8  6980.3
 12 JAN 22  22:14:00:00     388   21.6      38   -4.7      255.4  -37.9  -18.4  145.6   -2.8  6982.8
 12 JAN 22  22:15:00:00     394   32.7      38   -7.3      255.3  -38.1  -18.4  145.6   -2.8  6985.2
 12 JAN 22  22:16:00:00     379   36.9      34   -7.2      255.3  -38.2  -18.4  145.6   -2.8  6987.6
 12 JAN 22  22:17:00:00     380   31.1      38   -4.6      255.3  -38.3  -18.4  145.6   -2.8  6990.1
 12 JAN 22  22:18:00:00     387   19.6      39   -2.5      255.3  -38.5  -18.4  145.6   -2.8  6992.6
 12 JAN 22  22:19:00:00     398   12.5      41   -1.8      255.2  -38.6  -18.4  145.6   -2.8  6995.0
 12 JAN 22  22:20:00:00     403   11.7      46    0.1      255.2  -38.7  -18.4  145.6   -2.8  6997.4
 12 JAN 22  22:21:00:00     396    7.7      44   -1.4      255.2  -38.9  -18.4  145.6   -2.8  6999.9
 12 JAN 22  22:22:00:00     419    6.4      41    2.5      255.2  -39.0  -18.4  145.6   -2.8  7002.4
 12 JAN 22  22:23:00:00     430    8.5      38    2.8      255.1  -39.2  -18.4  145.6   -2.8  7004.8
 12 JAN 23  23:00:00:00     443    9.2      36    2.5      255.1  -39.3  -18.4  145.6   -2.8  7007.2
 12 JAN 23  23:01:00:00     429    8.0      39    1.4      255.1  -39.4  -18.4  145.6   -2.8  7009.7
 12 JAN 23  23:02:00:00     437    3.9      37    1.7      255.1  -39.6  -18.3  145.6   -2.8  7012.1
 12 JAN 23  23:03:00:00     434    2.9      39    1.8      255.0  -39.7  -18.3  145.6   -2.7  7014.6
 12 JAN 23  23:04:00:00     433    2.6      40    0.9      255.0  -39.8  -18.3  145.6   -2.7  7017.0
 12 JAN 23  23:05:00:00     434    3.6      43    1.6      255.0  -40.0  -18.3  145.6   -2.7  7019.5
 12 JAN 23  23:06:00:00     415    4.5      37    2.4      255.0  -40.1  -18.3  145.6   -2.7  7021.9
 12 JAN 23  23:07:00:00     417    4.9      36    2.6      254.9  -40.2  -18.3  145.6   -2.7  7024.4
 12 JAN 23  23:08:00:00     390    4.7      30    1.9      254.9  -40.4  -18.3  145.6   -2.7  7026.8
 12 JAN 23  23:09:00:00     391    4.4      30    1.9      254.9  -40.5  -18.3  145.6   -2.7  7029.3
 12 JAN 23  23:10:00:00     391    4.1      31    1.2      254.9  -40.6  -18.3  145.6   -2.7  7031.7
 12 JAN 23  23:11:00:00     379    4.9      26    1.7      254.8  -40.8  -18.3  145.6   -2.7  7034.2
 12 JAN 23  23:12:00:00     378    5.1      26    2.1      254.8  -40.9  -18.3  145.6   -2.7  7036.6
 12 JAN 23  23:13:00:00     378    5.8      25    2.5      254.8  -41.0  -18.2  145.6   -2.7  7039.1
 12 JAN 23  23:14:00:00     374    4.7      25    2.0      254.8  -41.2  -18.2  145.6   -2.7  7041.5
 12 JAN 23  23:15:00:00     361    7.1      22    1.3      254.7  -41.3  -18.2  145.6   -2.7  7043.9
 12 JAN 23  23:16:00:00     360    7.0      22    1.2      254.7  -41.4  -18.2  145.6   -2.7  7046.4
 12 JAN 23  23:17:00:00     363    5.6      22    2.0      254.7  -41.5  -18.2  145.6   -2.7  7048.9
 12 JAN 23  23:18:00:00     367    4.5      23    2.7      254.6  -41.7  -18.2  145.6   -2.7  7051.3
 12 JAN 23  23:19:00:00     378    4.4      25    3.5      254.6  -41.8  -18.2  145.6   -2.7  7053.7
 12 JAN 23  23:20:00:00     372    4.4      24    2.6      254.6  -41.9  -18.2  145.6   -2.7  7056.2
 12 JAN 23  23:21:00:00     358    4.9      21    2.0      254.6  -42.1  -18.2  145.6   -2.7  7058.7
 12 JAN 23  23:22:00:00     355    4.6      21    1.9      254.5  -42.2  -18.2  145.6   -2.7  7061.1
 12 JAN 23  23:23:00:00     365    4.1      24    1.1      254.5  -42.3  -18.2  145.6   -2.7  7063.5
 12 JAN 24  24:00:00:00     359    4.9      22    0.2      254.5  -42.5  -18.1  145.6   -2.7  7066.0
 12 JAN 24  24:01:00:00     372    4.6      27   -0.8      254.5  -42.6  -18.1  145.6   -2.7  7068.5
 12 JAN 24  24:02:00:00     372    4.9      26   -2.5      254.4  -42.7  -18.1  145.6   -2.7  7070.9
 12 JAN 24  24:03:00:00     360    5.6      23   -3.1      254.4  -42.9  -18.1  145.6   -2.7  7073.3
 12 JAN 24  24:04:00:00     354    7.5      23   -1.5      254.4  -43.0  -18.1  145.6   -2.7  7075.8
 12 JAN 24  24:05:00:00     353    8.1      20   -1.7      254.3  -43.1  -18.1  145.6   -2.7  7078.3
 12 JAN 24  24:06:00:00     353    7.7      20   -2.3      254.3  -43.3  -18.1  145.6   -2.7  7080.7
 12 JAN 24  24:07:00:00     352    5.5      20   -1.3      254.3  -43.4  -18.1  145.6   -2.7  7083.1
 12 JAN 24  24:08:00:00     353    5.4      20   -1.6      254.3  -43.5  -18.1  145.6   -2.7  7085.6
 12 JAN 24  24:09:00:00     356    3.2      22   -1.6      254.2  -43.7  -18.1  145.6   -2.7  7088.0
 12 JAN 24  24:10:00:00     355    2.9      21   -1.3      254.2  -43.8  -18.0  145.6   -2.7  7090.5
 12 JAN 24  24:11:00:00     353    3.0      21   -1.0      254.2  -43.9  -18.0  145.6   -2.7  7092.9
 12 JAN 24  24:12:00:00     351    3.1      20   -1.0      254.1  -44.0  -18.0  145.6   -2.7  7095.4
 12 JAN 24  24:13:00:00     357    3.8      23   -2.3      254.1  -44.2  -18.0  145.6   -2.7  7097.8
 12 JAN 24  24:14:00:00     522    4.2      49   -6.0      254.1  -44.3  -18.0  145.6   -2.7  7100.3
 12 JAN 24  24:15:00:00     663   10.5      77   -5.3      254.0  -44.4  -18.0  145.6   -2.7  7102.7
 12 JAN 24  24:16:00:00     662    9.2      74   -6.0      254.0  -44.6  -18.0  145.6   -2.7  7105.2
 12 JAN 24  24:17:00:00     638   11.1      77   -6.3      254.0  -44.7  -18.0  145.6   -2.7  7107.6
 12 JAN 24  24:18:00:00     620   11.9      77   -3.4      254.0  -44.8  -18.0  145.6   -2.7  7110.1
 12 JAN 24  24:19:00:00     615   10.0      64   -3.5      253.9  -45.0  -18.0  145.6   -2.7  7112.5
 12 JAN 24  24:20:00:00     601    8.8      63   -3.8      253.9  -45.1  -18.0  145.6   -2.7  7114.9
 12 JAN 24  24:21:00:00     593    7.0      59   -2.6      253.9  -45.2  -17.9  145.6   -2.6  7117.4
 12 JAN 24  24:22:00:00     578    5.2      56   -2.8      253.8  -45.3  -17.9  145.6   -2.6  7119.9
 12 JAN 24  24:23:00:00     570    4.5      57   -1.4      253.8  -45.5  -17.9  145.7   -2.6  7122.3
 12 JAN 25  25:00:00:00     593    4.6      61    0.4      253.8  -45.6  -17.9  145.7   -2.6  7124.7
 12 JAN 25  25:01:00:00     608    5.1      62    0.5      253.7  -45.7  -17.9  145.7   -2.6  7127.2
 12 JAN 25  25:02:00:00     594    6.0      57    1.2      253.7  -45.9  -17.9  145.7   -2.6  7129.7
 12 JAN 25  25:03:00:00     582    6.2      54    0.1      253.7  -46.0  -17.9  145.7   -2.6  7132.1
 12 JAN 25  25:04:00:00     568    6.9      53    1.8      253.6  -46.1  -17.9  145.7   -2.6  7134.5
 12 JAN 25  25:05:00:00     564    6.6      53    1.3      253.6  -46.3  -17.9  145.7   -2.6  7137.0
 12 JAN 25  25:06:00:00     565    6.0      56    0.3      253.6  -46.4  -17.9  145.7   -2.6  7139.4
 12 JAN 25  25:07:00:00     579    4.9      63    2.6      253.5  -46.5  -17.8  145.7   -2.6  7141.9
 12 JAN 25  25:08:00:00     574    6.8      66    1.4      253.5  -46.6  -17.8  145.7   -2.6  7144.3
 12 JAN 25  25:09:00:00     564    8.2      75    2.3      253.5  -46.8  -17.8  145.7   -2.6  7146.8
 12 JAN 25  25:10:00:00     574    9.3      71    2.8      253.4  -46.9  -17.8  145.7   -2.6  7149.2
 12 JAN 25  25:11:00:00     568    7.8      63    2.7      253.4  -47.0  -17.8  145.7   -2.6  7151.7
 12 JAN 25  25:12:00:00     582    8.0      60    4.6      253.4  -47.2  -17.8  145.7   -2.6  7154.1
 12 JAN 25  25:13:00:00     561    7.8      51    3.6      253.3  -47.3  -17.8  145.7   -2.6  7156.5
 12 JAN 25  25:14:00:00     557    8.2      50    4.9      253.3  -47.4  -17.8  145.7   -2.6  7159.0
 12 JAN 25  25:15:00:00     545    7.8      51    4.3      253.3  -47.5  -17.8  145.7   -2.6  7161.5
 12 JAN 25  25:16:00:00     551    4.5      51    4.1      253.2  -47.7  -17.7  145.7   -2.6  7163.9
 12 JAN 25  25:17:00:00     554    3.3      50    3.7      253.2  -47.8  -17.7  145.7   -2.6  7166.3
 12 JAN 25  25:18:00:00     524    3.3      48    4.8      253.2  -47.9  -17.7  145.7   -2.6  7168.8
 12 JAN 25  25:19:00:00     506    3.2      46    4.4      253.1  -48.1  -17.7  145.7   -2.6  7171.3
 12 JAN 25  25:20:00:00     487    3.5      40    4.1      253.1  -48.2  -17.7  145.7   -2.6  7173.7
 12 JAN 25  25:21:00:00     475    4.7      37    4.1      253.1  -48.3  -17.7  145.7   -2.6  7176.1
 12 JAN 25  25:22:00:00     470    3.7      37    3.8      253.0  -48.4  -17.7  145.7   -2.6  7178.6
 12 JAN 25  25:23:00:00     464    3.0      37    3.6      253.0  -48.6  -17.7  145.7   -2.6  7181.0
 12 JAN 26  26:00:00:00     460    2.6      37    3.4      253.0  -48.7  -17.7  145.7   -2.6  7183.5
 12 JAN 26  26:01:00:00     456    2.2      38    3.1      252.9  -48.8  -17.7  145.7   -2.6  7185.9
 12 JAN 26  26:02:00:00     457    2.2      39    2.6      252.9  -49.0  -17.6  145.7   -2.6  7188.4
 12 JAN 26  26:03:00:00     466    3.0      38    3.7      252.9  -49.1  -17.6  145.7   -2.6  7190.8
 12 JAN 26  26:04:00:00     476    4.3      36    4.0      252.8  -49.2  -17.6  145.7   -2.6  7193.3
 12 JAN 26  26:05:00:00     467    5.2      37    3.4      252.8  -49.3  -17.6  145.7   -2.6  7195.7
 12 JAN 26  26:06:00:00     460    6.0      36    3.6      252.8  -49.5  -17.6  145.7   -2.6  7198.1
 12 JAN 26  26:07:00:00     459    5.5      37    4.7      252.7  -49.6  -17.6  145.7   -2.6  7200.6
 12 JAN 26  26:08:00:00     462    6.8      36    5.3      252.7  -49.7  -17.6  145.7   -2.6  7203.1
 12 JAN 26  26:09:00:00     449    4.3      37    3.9      252.7  -49.8  -17.6  145.7   -2.6  7205.5
 12 JAN 26  26:10:00:00     432    3.1      39    2.2      252.6  -50.0  -17.6  145.7   -2.6  7207.9
 12 JAN 26  26:11:00:00     442    3.3      40    0.8      252.6  -50.1  -17.5  145.7   -2.6  7210.4
 12 JAN 26  26:12:00:00     501    3.9      58    8.0      252.6  -50.2  -17.5  145.7   -2.6  7212.8
 12 JAN 26  26:13:00:00     494    3.9      51    7.2      252.5  -50.4  -17.5  145.7   -2.6  7215.3
 12 JAN 26  26:14:00:00     478    2.5      46    4.4      252.5  -50.5  -17.5  145.7   -2.6  7217.7
 12 JAN 26  26:15:00:00     428    1.8      41    2.9      252.4  -50.6  -17.5  145.7   -2.6  7220.2
 12 JAN 26  26:16:00:00     433    1.7      41    3.5      252.4  -50.7  -17.5  145.7   -2.6  7222.6
 12 JAN 26  26:17:00:00     438    1.5      40    2.6      252.4  -50.9  -17.5  145.7   -2.6  7225.1
 12 JAN 26  26:18:00:00     433    1.6      40    2.4      252.3  -51.0  -17.5  145.7   -2.6  7227.5
 12 JAN 26  26:19:00:00     429    1.8      41    1.1      252.3  -51.1  -17.5  145.7   -2.6  7229.9
 12 JAN 26  26:20:00:00     406    3.0      40    0.3      252.3  -51.2  -17.4  145.7   -2.6  7232.4
 12 JAN 26  26:21:00:00     403    3.8      38    0.5      252.2  -51.4  -17.4  145.7   -2.6  7234.9
 12 JAN 26  26:22:00:00     418    2.7      38    1.1      252.2  -51.5  -17.4  145.7   -2.6  7237.3
 12 JAN 26  26:23:00:00     422    2.3      37    1.8      252.1  -51.6  -17.4  145.7   -2.6  7239.7
 12 JAN 27  27:00:00:00     426    1.8      38    3.1      252.1  -51.7  -17.4  145.7   -2.6  7242.2
 12 JAN 27  27:01:00:00     424    2.0      38    4.3      252.1  -51.9  -17.4  145.7   -2.6  7244.6
 12 JAN 27  27:02:00:00     443    3.1      39    4.7      252.0  -52.0  -17.4  145.7   -2.6  7247.1
 12 JAN 27  27:03:00:00     451    4.3      39    5.1      252.0  -52.1  -17.4  145.7   -2.6  7249.5
 12 JAN 27  27:04:00:00     465    4.0      36    4.0      252.0  -52.3  -17.4  145.7   -2.6  7251.9
 12 JAN 27  27:05:00:00     467    5.5      37    3.8      251.9  -52.4  -17.3  145.7   -2.6  7254.4
 12 JAN 27  27:06:00:00     473    6.8      32    4.7      251.9  -52.5  -17.3  145.7   -2.6  7256.9
 12 JAN 27  27:07:00:00     485    5.7      38    2.1      251.8  -52.6  -17.3  145.7   -2.6  7259.3
 12 JAN 27  27:08:00:00     494    3.9      41    1.8      251.8  -52.8  -17.3  145.7   -2.6  7261.7
 12 JAN 27  27:09:00:00     490    3.7      41    2.0      251.8  -52.9  -17.3  145.7   -2.6  7264.2
 12 JAN 27  27:10:00:00     528    2.8      48    1.6      251.7  -53.0  -17.3  145.7   -2.6  7266.6
 12 JAN 27  27:11:00:00     510    3.1      45    2.0      251.7  -53.1  -17.3  145.7   -2.6  7269.1
 12 JAN 27  27:12:00:00     510    3.1      46    1.0      251.7  -53.3  -17.3  145.7   -2.6  7271.5
 12 JAN 27  27:13:00:00     468    3.1      35    0.9      251.6  -53.4  -17.3  145.7   -2.6  7273.9
 12 JAN 27  27:14:00:00     481    3.3      40    0.7      251.6  -53.5  -17.2  145.7   -2.6  7276.4
 12 JAN 27  27:15:00:00     505    3.4      45    0.8      251.5  -53.6  -17.2  145.7   -2.6  7278.9
 12 JAN 27  27:16:00:00     492    3.7      43    1.2      251.5  -53.8  -17.2  145.7   -2.6  7281.3
 12 JAN 27  27:17:00:00     497    3.6      44    0.9      251.5  -53.9  -17.2  145.7   -2.6  7283.7
 12 JAN 27  27:18:00:00     475    4.0      39    0.2      251.4  -54.0  -17.2  145.7   -2.6  7286.2
 12 JAN 27  27:19:00:00     471    3.7      38    0.2      251.4  -54.1  -17.2  145.7   -2.6  7288.7
 12 JAN 27  27:20:00:00     468    3.7      37   -0.4      251.3  -54.3  -17.2  145.7   -2.5  7291.1
 12 JAN 27  27:21:00:00     480    3.5      42   -0.8      251.3  -54.4  -17.2  145.7   -2.5  7293.5
 12 JAN 27  27:22:00:00     471    2.7      42   -0.3      251.3  -54.5  -17.1  145.7   -2.5  7295.9
 12 JAN 27  27:23:00:00     471    2.3      43   -0.8      251.2  -54.6  -17.1  145.7   -2.5  7298.4
 12 JAN 28  28:00:00:00     467    2.3      40   -1.2      251.2  -54.7  -17.1  145.7   -2.5  7300.9
 12 JAN 28  28:01:00:00     459    2.1      36   -1.3      251.1  -54.9  -17.1  145.7   -2.5  7303.3
 12 JAN 28  28:02:00:00     461    2.5      32   -1.4      251.1  -55.0  -17.1  145.7   -2.5  7305.7
 12 JAN 28  28:03:00:00     462    2.9      32    0.3      251.1  -55.1  -17.1  145.7   -2.5  7308.2
 12 JAN 28  28:04:00:00     459    4.9      28    0.9      251.0  -55.2  -17.1  145.7   -2.5  7310.6
 12 JAN 28  28:05:00:00     455    3.5      32    0.2      251.0  -55.4  -17.1  145.7   -2.5  7313.1
 12 JAN 28  28:06:00:00     450    5.3      25    0.4      250.9  -55.5  -17.1  145.7   -2.5  7315.5
 12 JAN 28  28:07:00:00     450    4.9      25    0.2      250.9  -55.6  -17.0  145.7   -2.5  7317.9
 12 JAN 28  28:08:00:00     450    4.9      24    0.1      250.9  -55.7  -17.0  145.7   -2.5  7320.4
 12 JAN 28  28:09:00:00     452    3.8      25    0.4      250.8  -55.9  -17.0  145.7   -2.5  7322.9
 12 JAN 28  28:10:00:00     454    3.1      26   -0.2      250.8  -56.0  -17.0  145.7   -2.5  7325.3
 12 JAN 28  28:11:00:00     459    2.6      28   -0.9      250.7  -56.1  -17.0  145.7   -2.5  7327.7
 12 JAN 28  28:12:00:00     459    2.0      31   -0.6      250.7  -56.2  -17.0  145.7   -2.5  7330.2
 12 JAN 28  28:13:00:00     439    1.9      32   -0.8      250.7  -56.4  -17.0  145.7   -2.5  7332.6
 12 JAN 28  28:14:00:00     423    2.0      33   -0.8      250.6  -56.5  -17.0  145.7   -2.5  7335.1
 12 JAN 28  28:15:00:00     442    1.1      39   -1.1      250.6  -56.6  -16.9  145.7   -2.5  7337.5
 12 JAN 28  28:16:00:00     431    1.3      39   -1.0      250.5  -56.7  -16.9  145.7   -2.5  7339.9
 12 JAN 28  28:17:00:00     411    1.8      36    0.7      250.5  -56.9  -16.9  145.7   -2.5  7342.4
 12 JAN 28  28:18:00:00     401    2.8      33    1.3      250.4  -57.0  -16.9  145.7   -2.5  7344.9
 12 JAN 28  28:19:00:00     412    3.2      36    0.8      250.4  -57.1  -16.9  145.7   -2.5  7347.3
 12 JAN 28  28:20:00:00     416    3.8      39   -0.5      250.4  -57.2  -16.9  145.7   -2.5  7349.7
 12 JAN 28  28:21:00:00     425    3.5      41   -0.3      250.3  -57.3  -16.9  145.7   -2.5  7352.2
 12 JAN 28  28:22:00:00     425    2.9      40    0.5      250.3  -57.5  -16.9  145.7   -2.5  7354.6
 12 JAN 28  28:23:00:00     442    3.1      39   -1.8      250.2  -57.6  -16.8  145.7   -2.5  7357.1
 12 JAN 29  29:00:00:00     412    3.5      37   -0.4      250.2  -57.7  -16.8  145.7   -2.5  7359.5
 12 JAN 29  29:01:00:00     396    3.5      33    0.6      250.2  -57.8  -16.8  145.7   -2.5  7361.9
 12 JAN 29  29:02:00:00     408    3.5      36   -0.4      250.1  -58.0  -16.8  145.7   -2.5  7364.4
 12 JAN 29  29:03:00:00     405    3.5      35    0.6      250.1  -58.1  -16.8  145.7   -2.5  7366.8
 12 JAN 29  29:04:00:00     402    3.3      35    0.2      250.0  -58.2  -16.8  145.7   -2.5  7369.3
 12 JAN 29  29:05:00:00     409    2.9      36    0.0      250.0  -58.3  -16.8  145.7   -2.5  7371.7
 12 JAN 29  29:06:00:00     397    3.3      33   -1.1      249.9  -58.4  -16.8  145.7   -2.5  7374.1
 12 JAN 29  29:07:00:00     376    3.7      25    0.3      249.9  -58.6  -16.7  145.7   -2.5  7376.6
 12 JAN 29  29:08:00:00     392    3.5      32    0.4      249.9  -58.7  -16.7  145.7   -2.5  7379.1
 12 JAN 29  29:09:00:00     388    3.8      30    0.3      249.8  -58.8  -16.7  145.7   -2.5  7381.5
 12 JAN 29  29:10:00:00     392    3.3      32   -0.7      249.8  -58.9  -16.7  145.7   -2.5  7383.9
 12 JAN 29  29:11:00:00     391    3.3      30   -1.5      249.7  -59.0  -16.7  145.8   -2.5  7386.4
 12 JAN 29  29:12:00:00     393    3.6      31   -2.2      249.7  -59.2  -16.7  145.8   -2.5  7388.8
 12 JAN 29  29:13:00:00     384    3.8      28   -2.1      249.6  -59.3  -16.7  145.8   -2.5  7391.3
 12 JAN 29  29:14:00:00     375    3.4      27   -1.3      249.6  -59.4  -16.7  145.8   -2.5  7393.7
 12 JAN 29  29:15:00:00     370    2.1      30   -0.9      249.5  -59.5  -16.6  145.8   -2.5  7396.1
 12 JAN 29  29:16:00:00     367    2.5      28   -1.0      249.5  -59.7  -16.6  145.8   -2.5  7398.6
 12 JAN 29  29:17:00:00     363    2.6      27   -1.0      249.5  -59.8  -16.6  145.8   -2.5  7401.0
 12 JAN 29  29:18:00:00     364    2.5      28   -0.8      249.4  -59.9  -16.6  145.8   -2.5  7403.5
 12 JAN 29  29:19:00:00     372    3.9      25    0.1      249.4  -60.0  -16.6  145.8   -2.5  7405.9
 12 JAN 29  29:20:00:00     374    3.7      26   -0.4      249.3  -60.1  -16.6  145.8   -2.5  7408.4
 12 JAN 29  29:21:00:00     368    4.4      23   -3.7      249.3  -60.3  -16.6  145.8   -2.5  7410.8
 12 JAN 29  29:22:00:00     368    4.6      23   -3.6      249.2  -60.4  -16.6  145.8   -2.5  7413.3
 12 JAN 29  29:23:00:00     365    4.6      25   -3.7      249.2  -60.5  -16.5  145.8   -2.5  7415.7
 12 JAN 30  30:00:00:00     363    4.6      24   -3.2      249.2  -60.6  -16.5  145.8   -2.5  7418.1
 12 JAN 30  30:01:00:00     363    3.8      26   -3.8      249.1  -60.7  -16.5  145.8   -2.5  7420.6
 12 JAN 30  30:02:00:00     360    4.9      22   -2.7      249.1  -60.9  -16.5  145.8   -2.5  7423.0
 12 JAN 30  30:03:00:00     355    4.7      21   -1.1      249.0  -61.0  -16.5  145.8   -2.5  7425.5
 12 JAN 30  30:04:00:00     353    4.7      21   -1.1      249.0  -61.1  -16.5  145.8   -2.5  7427.9
 12 JAN 30  30:05:00:00     353    4.4      22   -1.3      248.9  -61.2  -16.5  145.8   -2.5  7430.4
 12 JAN 30  30:06:00:00     351    4.0      25   -5.2      248.9  -61.3  -16.5  145.8   -2.5  7432.8
 12 JAN 30  30:07:00:00     347    3.5      26   -5.6      248.8  -61.5  -16.4  145.8   -2.5  7435.2
 12 JAN 30  30:08:00:00     344    3.8      25   -5.9      248.8  -61.6  -16.4  145.8   -2.4  7437.7
 12 JAN 30  30:09:00:00     341    3.2      25   -4.0      248.8  -61.7  -16.4  145.8   -2.4  7440.1
 12 JAN 30  30:10:00:00     341    3.7      26   -5.9      248.7  -61.8  -16.4  145.8   -2.4  7442.6
 12 JAN 30  30:11:00:00     330    4.6      25   -4.2      248.7  -61.9  -16.4  145.8   -2.4  7445.0
 12 JAN 30  30:12:00:00     318    3.8      22   -2.4      248.6  -62.1  -16.4  145.8   -2.4  7447.4
 12 JAN 30  30:13:00:00     321    3.9      23   -2.2      248.6  -62.2  -16.4  145.8   -2.4  7449.9
 12 JAN 30  30:14:00:00     313    4.2      21   -1.8      248.5  -62.3  -16.3  145.8   -2.4  7452.4
 12 JAN 30  30:15:00:00     320   15.7      27    0.6      248.5  -62.4  -16.3  145.8   -2.4  7454.8
 12 JAN 30  30:16:00:00     316   33.3      26   -3.1      248.4  -62.5  -16.3  145.8   -2.4  7457.2
 12 JAN 30  30:17:00:00     352   31.2      40   -1.6      248.4  -62.7  -16.3  145.8   -2.4  7459.6
 12 JAN 30  30:18:00:00     401   15.1      45   -1.9      248.3  -62.8  -16.3  145.8   -2.4  7462.1
 12 JAN 30  30:19:00:00     410   15.5      40   -4.6      248.3  -62.9  -16.3  145.8   -2.4  7464.6
 12 JAN 30  30:20:00:00     385   13.9      41   -3.7      248.3  -63.0  -16.3  145.8   -2.4  7467.0
 12 JAN 30  30:21:00:00     372   13.0      39   -0.9      248.2  -63.1  -16.3  145.8   -2.4  7469.4
 12 JAN 30  30:22:00:00     373   12.1      38   -2.2      248.2  -63.3  -16.2  145.8   -2.4  7471.8
 12 JAN 30  30:23:00:00     367   13.7      35   -3.3      248.1  -63.4  -16.2  145.8   -2.4  7474.3
 12 JAN 31  31:00:00:00     371   14.2      35   -4.3      248.1  -63.5  -16.2  145.8   -2.4  7476.8
 12 JAN 31  31:01:00:00     364   16.8      33   -5.3      248.0  -63.6  -16.2  145.8   -2.4  7479.2
 12 JAN 31  31:02:00:00     374   17.6      31   -5.1      248.0  -63.7  -16.2  145.8   -2.4  7481.6
 12 JAN 31  31:03:00:00     372   18.3      32   -5.4      247.9  -63.8  -16.2  145.8   -2.4  7484.0
 12 JAN 31  31:04:00:00     370   16.6      33   -5.3      247.9  -64.0  -16.2  145.8   -2.4  7486.5
 12 JAN 31  31:05:00:00     362   15.8      29   -5.1      247.8  -64.1  -16.1  145.8   -2.4  7489.0
 12 JAN 31  31:06:00:00     359   13.1      28   -3.9      247.8  -64.2  -16.1  145.8   -2.4  7491.4
 12 JAN 31  31:07:00:00     356   11.2      26   -3.7      247.7  -64.3  -16.1  145.8   -2.4  7493.8
 12 JAN 31  31:08:00:00     355   11.6      25   -4.6      247.7  -64.4  -16.1  145.8   -2.4  7496.2
 12 JAN 31  31:09:00:00     353   10.2      25   -4.0      247.6  -64.6  -16.1  145.8   -2.4  7498.7
 12 JAN 31  31:10:00:00     353    9.7      25   -3.8      247.6  -64.7  -16.1  145.8   -2.4  7501.2
 12 JAN 31  31:11:00:00     350    8.2      24   -4.0      247.6  -64.8  -16.1  145.8   -2.4  7503.6
 12 JAN 31  31:12:00:00     351    5.0      27   -3.6      247.5  -64.9  -16.0  145.8   -2.3  7506.0
 12 JAN 31  31:13:00:00     344    4.9      26   -4.5      247.5  -65.0  -16.0  145.8   -2.3  7508.4
 12 JAN 31  31:14:00:00     325    5.8      22   -5.0      247.4  -65.1  -16.0  145.8   -2.3  7510.9
 12 JAN 31  31:15:00:00     316    6.9      21   -2.6      247.4  -65.3  -16.0  145.8   -2.3  7513.4
 12 JAN 31  31:16:00:00     312    8.1      20   -3.3      247.3  -65.4  -16.0  145.8   -2.3  7515.8
 12 JAN 31  31:17:00:00     320    8.6      21   -5.3      247.3  -65.5  -16.0  145.8   -2.3  7518.2
 12 JAN 31  31:18:00:00     321    5.7      23   -1.3      247.2  -65.6  -16.0  145.8   -2.3  7520.7
 12 JAN 31  31:19:00:00     323    5.2      23   -1.0      247.2  -65.7  -15.9  145.8   -2.3  7523.1
 12 JAN 31  31:20:00:00     333    5.5      25   -2.2      247.1  -65.8  -15.9  145.8   -2.3  7525.6
 12 JAN 31  31:21:00:00     342    5.7      26   -1.5      247.1  -66.0  -15.9  145.8   -2.3  7528.0
 12 JAN 31  31:22:00:00     345    7.3      27   -0.8      247.0  -66.1  -15.9  145.8   -2.3  7530.4
 12 JAN 31  31:23:00:00     346    7.9      27   -0.6      247.0  -66.2  -15.9  145.8   -2.3  7532.9
 12 FEB  1  32:00:00:00     349    9.2      28    2.0      246.9  -66.3  -15.9  145.8   -2.3  7535.3
 12 FEB  1  32:01:00:00     351    7.0      27    1.4      246.9  -66.4  -15.9  145.8   -2.3  7537.8
 12 FEB  1  32:02:00:00     352    8.7      25   -0.8      246.8  -66.5  -15.8  145.8   -2.3  7540.2
 12 FEB  1  32:03:00:00     348    8.0      25    0.1      246.8  -66.7  -15.8  145.8   -2.3  7542.7
 12 FEB  1  32:04:00:00     352    7.0      27   -2.5      246.8  -66.8  -15.8  145.8   -2.3  7545.1
 12 FEB  1  32:05:00:00     350    5.1      26   -0.4      246.7  -66.9  -15.8  145.8   -2.3  7547.5
 12 FEB  1  32:06:00:00     354    4.2      30   -0.8      246.7  -67.0  -15.8  145.8   -2.3  7550.0
 12 FEB  1  32:07:00:00     356    4.8      31   -0.5      246.6  -67.1  -15.8  145.8   -2.3  7552.4
 12 FEB  1  32:08:00:00     352    4.8      26   -1.7      246.6  -67.2  -15.8  145.8   -2.3  7554.9
 12 FEB  1  32:09:00:00     353    4.3      26   -1.4      246.5  -67.3  -15.7  145.8   -2.3  7557.3
 12 FEB  1  32:10:00:00     358    6.3      29    0.6      246.5  -67.5  -15.7  145.8   -2.3  7559.7
 12 FEB  1  32:11:00:00     352    6.4      27   -1.6      246.4  -67.6  -15.7  145.8   -2.3  7562.1
 12 FEB  1  32:12:00:00     352    6.0      27   -1.5      246.4  -67.7  -15.7  145.8   -2.3  7564.6
 12 FEB  1  32:13:00:00     348    5.0      26   -3.2      246.3  -67.8  -15.7  145.8   -2.3  7567.1
 12 FEB  1  32:14:00:00     351    5.0      24   -2.4      246.3  -67.9  -15.7  145.8   -2.3  7569.5
 12 FEB  1  32:15:00:00     357    5.4      23   -2.7      246.2  -68.0  -15.7  145.8   -2.3  7571.9
 12 FEB  1  32:16:00:00     360    6.6      22   -1.7      246.2  -68.2  -15.6  145.8   -2.3  7574.3
 12 FEB  1  32:17:00:00     360    7.2      22   -1.2      246.1  -68.3  -15.6  145.8   -2.3  7576.8
 12 FEB  1  32:18:00:00     361    7.1      22   -1.0      246.1  -68.4  -15.6  145.8   -2.3  7579.2
 12 FEB  1  32:19:00:00     361    7.7      22   -0.6      246.0  -68.5  -15.6  145.8   -2.3  7581.7
 12 FEB  1  32:20:00:00     371    9.2      24   -0.7      246.0  -68.6  -15.6  145.8   -2.3  7584.1
 12 FEB  1  32:21:00:00     371    9.2      24   -0.6      245.9  -68.7  -15.6  145.8   -2.3  7586.5
 12 FEB  1  32:22:00:00     387    9.3      27    0.3      245.9  -68.8  -15.6  145.8   -2.3  7589.0
 12 FEB  1  32:23:00:00     388    9.7      27    1.1      245.8  -69.0  -15.5  145.8   -2.3  7591.4
 12 FEB  2  33:00:00:00     368    8.8      23    1.3      245.8  -69.1  -15.5  145.8   -2.3  7593.9
 12 FEB  2  33:01:00:00     372    6.5      25   -1.1      245.7  -69.2  -15.5  145.8   -2.3  7596.3
 12 FEB  2  33:02:00:00     380    5.9      27   -1.1      245.7  -69.3  -15.5  145.8   -2.3  7598.7
 12 FEB  2  33:03:00:00     378    6.0      26   -1.1      245.6  -69.4  -15.5  145.8   -2.3  7601.2
 12 FEB  2  33:04:00:00     382    5.5      26   -2.3      245.6  -69.5  -15.5  145.8   -2.3  7603.6
 12 FEB  2  33:05:00:00     400    4.6      32   -1.7      245.5  -69.6  -15.5  145.8   -2.3  7606.1
 12 FEB  2  33:06:00:00     397    4.4      30   -1.9      245.5  -69.7  -15.4  145.8   -2.3  7608.5
 12 FEB  2  33:07:00:00     420    4.1      37   -2.0      245.4  -69.9  -15.4  145.9   -2.3  7610.9
 12 FEB  2  33:08:00:00     421    4.0      37   -1.3      245.4  -70.0  -15.4  145.9   -2.3  7613.4
 12 FEB  2  33:09:00:00     417    4.3      36   -3.0      245.3  -70.1  -15.4  145.9   -2.3  7615.8
 12 FEB  2  33:10:00:00     418    4.5      37   -3.0      245.3  -70.2  -15.4  145.9   -2.3  7618.2
 12 FEB  2  33:11:00:00     410    4.2      35   -2.3      245.3  -70.3  -15.4  145.9   -2.3  7620.7
 12 FEB  2  33:12:00:00     379    4.5      27   -0.5      245.2  -70.4  -15.3  145.9   -2.3  7623.2
 12 FEB  2  33:13:00:00     369    4.7      24    0.4      245.2  -70.5  -15.3  145.9   -2.3  7625.6
 12 FEB  2  33:14:00:00     364    5.2      23    0.6      245.1  -70.7  -15.3  145.9   -2.3  7628.0
 12 FEB  2  33:15:00:00     358    5.2      21    1.4      245.1  -70.8  -15.3  145.9   -2.2  7630.4
 12 FEB  2  33:16:00:00     353    4.3      20    1.0      245.0  -70.9  -15.3  145.9   -2.2  7632.9
 12 FEB  2  33:17:00:00     353    4.7      21   -0.2      245.0  -71.0  -15.3  145.9   -2.2  7635.3
 12 FEB  2  33:18:00:00     370    6.2      25    0.6      244.9  -71.1  -15.3  145.9   -2.2  7637.8
 12 FEB  2  33:19:00:00     383    5.5      29    1.2      244.9  -71.2  -15.2  145.9   -2.2  7640.2
 12 FEB  2  33:20:00:00     404    4.6      34    2.7      244.8  -71.3  -15.2  145.9   -2.2  7642.6
 12 FEB  2  33:21:00:00     392    5.1      30    2.5      244.8  -71.4  -15.2  145.9   -2.2  7645.1
 12 FEB  2  33:22:00:00     390    4.8      30    1.0      244.7  -71.5  -15.2  145.9   -2.2  7647.5
 12 FEB  2  33:23:00:00     377    5.3      28    1.6      244.7  -71.7  -15.2  145.9   -2.2  7650.0
 12 FEB  3  34:00:00:00     371    5.4      24    0.7      244.6  -71.8  -15.2  145.9   -2.2  7652.4
 12 FEB  3  34:01:00:00     389    5.5      28    2.6      244.6  -71.9  -15.1  145.9   -2.2  7654.8
 12 FEB  3  34:02:00:00     398    5.5      31    1.6      244.5  -72.0  -15.1  145.9   -2.2  7657.2
 12 FEB  3  34:03:00:00     383    4.6      31   -1.4      244.5  -72.1  -15.1  145.9   -2.2  7659.7
 12 FEB  3  34:04:00:00     385    4.9      34   -1.9      244.4  -72.2  -15.1  145.9   -2.2  7662.1
 12 FEB  3  34:05:00:00     393    5.5      37   -0.2      244.4  -72.3  -15.1  145.9   -2.2  7664.6
 12 FEB  3  34:06:00:00     410    7.5      41    3.5      244.3  -72.4  -15.1  145.9   -2.2  7667.0
 12 FEB  3  34:07:00:00     409    8.5      39    4.4      244.3  -72.5  -15.1  145.9   -2.2  7669.4
 12 FEB  3  34:08:00:00     392    6.6      35    1.9      244.2  -72.7  -15.0  145.9   -2.2  7671.9
 12 FEB  3  34:09:00:00     389    6.4      32    1.3      244.2  -72.8  -15.0  145.9   -2.2  7674.3
 12 FEB  3  34:10:00:00     410    5.6      37    1.2      244.1  -72.9  -15.0  145.9   -2.2  7676.8
 12 FEB  3  34:11:00:00     388    4.9      30    0.1      244.1  -73.0  -15.0  145.9   -2.2  7679.2
 12 FEB  3  34:12:00:00     385    5.4      32    1.1      244.0  -73.1  -15.0  145.9   -2.2  7681.7
 12 FEB  3  34:13:00:00     394    5.8      33    2.5      244.0  -73.2  -15.0  145.9   -2.2  7684.1
 12 FEB  3  34:14:00:00     383    5.4      30    0.2      243.9  -73.3  -14.9  145.9   -2.2  7686.5
 12 FEB  3  34:15:00:00     395    6.2      34    2.2      243.9  -73.4  -14.9  145.9   -2.2  7688.9
 12 FEB  3  34:16:00:00     396    6.1      35    3.0      243.8  -73.5  -14.9  145.9   -2.2  7691.4
 12 FEB  3  34:17:00:00     380    5.0      31    1.8      243.8  -73.7  -14.9  145.9   -2.2  7693.8
 12 FEB  3  34:18:00:00     386    5.7      30    2.3      243.7  -73.8  -14.9  145.9   -2.2  7696.3
 12 FEB  3  34:19:00:00     397    6.1      38    3.1      243.7  -73.9  -14.9  145.9   -2.2  7698.7
 12 FEB  3  34:20:00:00     388    6.8      37    3.4      243.6  -74.0  -14.8  145.9   -2.2  7701.1
 12 FEB  3  34:21:00:00     376    6.0      30    2.0      243.6  -74.1  -14.8  145.9   -2.2  7703.5
 12 FEB  3  34:22:00:00     386    5.4      31    2.0      243.5  -74.2  -14.8  145.9   -2.2  7706.0
 12 FEB  3  34:23:00:00     398    5.8      32    3.0      243.5  -74.3  -14.8  145.9   -2.2  7708.4
 12 FEB  4  35:00:00:00     406    5.5      34    2.0      243.4  -74.4  -14.8  145.9   -2.2  7710.9
 12 FEB  4  35:01:00:00     409    4.0      32    0.5      243.4  -74.5  -14.8  145.9   -2.2  7713.3
 12 FEB  4  35:02:00:00     406    3.6      33    0.8      243.3  -74.6  -14.7  145.9   -2.2  7715.7
 12 FEB  4  35:03:00:00     397    6.2      31    2.6      243.3  -74.7  -14.7  145.9   -2.2  7718.2
 12 FEB  4  35:04:00:00     404    4.9      32   -0.9      243.2  -74.8  -14.7  145.9   -2.2  7720.6
 12 FEB  4  35:05:00:00     409    4.8      34   -2.8      243.2  -75.0  -14.7  145.9   -2.2  7723.1
 12 FEB  4  35:06:00:00     424    4.6      36   -1.0      243.1  -75.1  -14.7  145.9   -2.2  7725.5
 12 FEB  4  35:07:00:00     409    7.0      43    2.0      243.1  -75.2  -14.7  145.9   -2.2  7727.9
 12 FEB  4  35:08:00:00     413    6.9      39   -0.7      243.0  -75.3  -14.7  145.9   -2.2  7730.4
 12 FEB  4  35:09:00:00     417    7.5      39   -0.1      243.0  -75.4  -14.6  145.9   -2.2  7732.8
 12 FEB  4  35:10:00:00     423    6.7      35   -1.1      242.9  -75.5  -14.6  145.9   -2.2  7735.2
 12 FEB  4  35:11:00:00     417    7.3      38    1.2      242.9  -75.6  -14.6  145.9   -2.2  7737.7
 12 FEB  4  35:12:00:00     413    7.0      39   -0.7      242.8  -75.7  -14.6  145.9   -2.2  7740.1
 12 FEB  4  35:13:00:00     420    6.5      37   -1.1      242.8  -75.8  -14.6  145.9   -2.2  7742.6
 12 FEB  4  35:14:00:00     417    6.2      36    0.1      242.7  -75.9  -14.6  145.9   -2.1  7745.0
 12 FEB  4  35:15:00:00     412    5.6      36   -0.2      242.7  -76.0  -14.5  145.9   -2.1  7747.4
 12 FEB  4  35:16:00:00     424    6.4      37    2.8      242.6  -76.1  -14.5  145.9   -2.1  7749.8
 12 FEB  4  35:17:00:00     427    5.6      37    1.0      242.6  -76.2  -14.5  145.9   -2.1  7752.3
 12 FEB  4  35:18:00:00     428    5.1      37   -0.3      242.5  -76.4  -14.5  145.9   -2.1  7754.7
 12 FEB  4  35:19:00:00     437    5.4      38   -0.6      242.5  -76.5  -14.5  145.9   -2.1  7757.2
 12 FEB  4  35:20:00:00     431    5.2      38    1.0      242.4  -76.6  -14.5  145.9   -2.1  7759.6
 12 FEB  4  35:21:00:00     425    4.9      37   -1.1      242.4  -76.7  -14.4  145.9   -2.1  7762.0
 12 FEB  4  35:22:00:00     423    4.8      36   -1.7      242.3  -76.8  -14.4  145.9   -2.1  7764.4
 12 FEB  4  35:23:00:00     425    4.6      38   -0.9      242.3  -76.9  -14.4  145.9   -2.1  7766.9
 12 FEB  5  36:00:00:00     433    4.5      37    0.2      242.2  -77.0  -14.4  145.9   -2.1  7769.3
 12 FEB  5  36:01:00:00     430    4.2      36   -0.2      242.2  -77.1  -14.4  145.9   -2.1  7771.8
 12 FEB  5  36:02:00:00     424    4.3      38    0.8      242.1  -77.2  -14.4  145.9   -2.1  7774.2
 12 FEB  5  36:03:00:00     431    4.8      37    1.2      242.1  -77.3  -14.3  145.9   -2.1  7776.6
 12 FEB  5  36:04:00:00     422    4.2      37    2.2      242.0  -77.4  -14.3  145.9   -2.1  7779.1
 12 FEB  5  36:05:00:00     418    4.1      36    0.1      242.0  -77.5  -14.3  145.9   -2.1  7781.5
 12 FEB  5  36:06:00:00     387    3.8      30   -1.4      241.9  -77.6  -14.3  145.9   -2.1  7783.9
 12 FEB  5  36:07:00:00     401    4.1      32    0.9      241.9  -77.7  -14.3  145.9   -2.1  7786.4
 12 FEB  5  36:08:00:00     394    3.8      31    0.0      241.8  -77.8  -14.3  145.9   -2.1  7788.8
 12 FEB  5  36:09:00:00     388    3.8      28   -0.7      241.8  -77.9  -14.2  145.9   -2.1  7791.3
 12 FEB  5  36:10:00:00     370    4.0      24    0.1      241.7  -78.0  -14.2  145.9   -2.1  7793.7
 12 FEB  5  36:11:00:00     382    4.5      27    1.1      241.7  -78.1  -14.2  145.9   -2.1  7796.1
 12 FEB  5  36:12:00:00     383    4.0      28   -0.1      241.6  -78.2  -14.2  145.9   -2.1  7798.5
 12 FEB  5  36:13:00:00     389    4.0      28   -1.0      241.6  -78.3  -14.2  145.9   -2.1  7801.0
 12 FEB  5  36:14:00:00     383    4.2      28   -0.6      241.5  -78.5  -14.1  145.9   -2.1  7803.4
 12 FEB  5  36:15:00:00     386    4.6      28    1.3      241.5  -78.6  -14.1  145.9   -2.1  7805.9
 12 FEB  5  36:16:00:00     378    4.6      25   -1.1      241.4  -78.7  -14.1  146.0   -2.1  7808.3
 12 FEB  5  36:17:00:00     384    4.8      27    0.8      241.4  -78.8  -14.1  146.0   -2.1  7810.7
 12 FEB  5  36:18:00:00     394    4.8      31   -1.5      241.3  -78.9  -14.1  146.0   -2.1  7813.1
 12 FEB  5  36:19:00:00     396    4.1      32   -1.1      241.3  -79.0  -14.1  146.0   -2.1  7815.6
 12 FEB  5  36:20:00:00     389    5.1      29    2.0      241.2  -79.1  -14.0  146.0   -2.1  7818.0
 12 FEB  5  36:21:00:00     391    4.8      30    1.5      241.2  -79.2  -14.0  146.0   -2.1  7820.5
 12 FEB  5  36:22:00:00     394    5.3      30    2.0      241.1  -79.3  -14.0  146.0   -2.1  7822.9
 12 FEB  5  36:23:00:00     395    4.4      32   -0.4      241.1  -79.4  -14.0  146.0   -2.1  7825.3
 12 FEB  6  37:00:00:00     390    5.0      29   -0.8      241.0  -79.5  -14.0  146.0   -2.1  7827.8
 12 FEB  6  37:01:00:00     388    4.8      29   -0.1      241.0  -79.6  -14.0  146.0   -2.1  7830.2
 12 FEB  6  37:02:00:00     387    5.1      28    0.6      240.9  -79.7  -13.9  146.0   -2.1  7832.6
 12 FEB  6  37:03:00:00     381    5.0      26    1.5      240.9  -79.8  -13.9  146.0   -2.1  7835.0
 12 FEB  6  37:04:00:00     375    4.7      26    1.2      240.8  -79.9  -13.9  146.0   -2.1  7837.5
 12 FEB  6  37:05:00:00     379    4.7      26    1.1      240.8  -80.0  -13.9  146.0   -2.1  7839.9
 12 FEB  6  37:06:00:00     369    5.1      23    0.2      240.7  -80.1  -13.9  146.0   -2.1  7842.4